sensor_id;sensor_type;location;lat;lon;timestamp;P1;durP1;ratioP1;P2;durP2;ratioP2
3943;SDS011;1986;52.546;13.428;2023-03-14T00:00:18;11.07;;;10.77;;
3943;SDS011;1986;52.546;13.428;2023-03-14T00:02:53;10.93;;;10.63;;
3943;SDS011;1986;52.546;13.428;2023-03-14T00:05:20;10.97;;;10.67;;
3943;SDS011;1986;52.546;13.428;2023-03-14T00:07:55;11.30;;;11.00;;
3943;SDS011;1986;52.546;13.428;2023-03-14T00:10:25;10.90;;;10.60;;
3943;SDS011;1986;52.546;13.428;2023-03-14T00:12:54;11.13;;;10.83;;
3943;SDS011;1986;52.546;13.428;2023-03-14T00:15:21;11.60;;;11.30;;
3943;SDS011;1986;52.546;13.428;2023-03-14T00:17:48;11.30;;;11.00;;
3943;SDS011;1986;52.546;13.428;2023-03-14T00:20:16;11.20;;;10.90;;
3943;SDS011;1986;52.546;13.428;2023-03-14T00:22:43;11.17;;;10.87;;
3943;SDS011;1986;52.546;13.428;2023-03-14T00:25:13;11.50;;;11.20;;
3943;SDS011;1986;52.546;13.428;2023-03-14T00:27:43;11.57;;;11.27;;
3943;SDS011;1986;52.546;13.428;2023-03-14T00:30:10;11.30;;;11.00;;
3943;SDS011;1986;52.546;13.428;2023-03-14T00:32:38;11.70;;;11.40;;
3943;SDS011;1986;52.546;13.428;2023-03-14T00:35:05;11.10;;;10.80;;
3943;SDS011;1986;52.546;13.428;2023-03-14T00:37:32;10.40;;;10.20;;
3943;SDS011;1986;52.546;13.428;2023-03-14T00:40:02;10.50;;;10.30;;
3943;SDS011;1986;52.546;13.428;2023-03-14T00:42:33;10.60;;;10.30;;
3943;SDS011;1986;52.546;13.428;2023-03-14T00:45:00;9.60;;;9.40;;
3943;SDS011;1986;52.546;13.428;2023-03-14T00:47:28;11.53;;;11.13;;
3943;SDS011;1986;52.546;13.428;2023-03-14T00:49:55;10.20;;;10.00;;
3943;SDS011;1986;52.546;13.428;2023-03-14T00:52:22;9.67;;;9.43;;
3943;SDS011;1986;52.546;13.428;2023-03-14T00:54:49;9.80;;;9.60;;
3943;SDS011;1986;52.546;13.428;2023-03-14T00:57:16;9.30;;;9.10;;
3943;SDS011;1986;52.546;13.428;2023-03-14T00:59:45;9.67;;;9.47;;
3943;SDS011;1986;52.546;13.428;2023-03-14T01:02:11;9.40;;;9.20;;
3943;SDS011;1986;52.546;13.428;2023-03-14T01:04:40;9.10;;;8.90;;
3943;SDS011;1986;52.546;13.428;2023-03-14T01:07:08;9.30;;;9.10;;
3943;SDS011;1986;52.546;13.428;2023-03-14T01:09:35;9.47;;;9.27;;
3943;SDS011;1986;52.546;13.428;2023-03-14T01:12:02;9.50;;;9.30;;
3943;SDS011;1986;52.546;13.428;2023-03-14T01:14:29;9.20;;;9.00;;
3943;SDS011;1986;52.546;13.428;2023-03-14T01:16:57;9.00;;;8.80;;
3943;SDS011;1986;52.546;13.428;2023-03-14T01:19:26;8.90;;;8.70;;
3943;SDS011;1986;52.546;13.428;2023-03-14T01:21:56;9.10;;;8.90;;
3943;SDS011;1986;52.546;13.428;2023-03-14T01:24:23;8.60;;;8.40;;
3943;SDS011;1986;52.546;13.428;2023-03-14T01:26:50;8.30;;;8.20;;
3943;SDS011;1986;52.546;13.428;2023-03-14T01:29:17;8.50;;;8.30;;
3943;SDS011;1986;52.546;13.428;2023-03-14T01:31:43;8.90;;;8.70;;
3943;SDS011;1986;52.546;13.428;2023-03-14T01:34:12;8.70;;;8.57;;
3943;SDS011;1986;52.546;13.428;2023-03-14T01:36:39;8.40;;;8.30;;
3943;SDS011;1986;52.546;13.428;2023-03-14T01:39:09;8.50;;;8.30;;
3943;SDS011;1986;52.546;13.428;2023-03-14T01:41:39;8.43;;;8.33;;
3943;SDS011;1986;52.546;13.428;2023-03-14T01:44:08;8.27;;;8.17;;
3943;SDS011;1986;52.546;13.428;2023-03-14T01:46:37;8.50;;;8.40;;
3943;SDS011;1986;52.546;13.428;2023-03-14T01:49:07;8.40;;;8.20;;
3943;SDS011;1986;52.546;13.428;2023-03-14T01:51:42;8.33;;;8.23;;
3943;SDS011;1986;52.546;13.428;2023-03-14T01:54:14;8.30;;;8.20;;
3943;SDS011;1986;52.546;13.428;2023-03-14T01:56:46;9.47;;;8.97;;
3943;SDS011;1986;52.546;13.428;2023-03-14T01:59:16;8.10;;;8.00;;
3943;SDS011;1986;52.546;13.428;2023-03-14T02:01:44;8.23;;;8.13;;
3943;SDS011;1986;52.546;13.428;2023-03-14T02:04:15;8.73;;;8.60;;
3943;SDS011;1986;52.546;13.428;2023-03-14T02:06:47;8.60;;;8.43;;
3943;SDS011;1986;52.546;13.428;2023-03-14T02:09:17;9.13;;;8.93;;
3943;SDS011;1986;52.546;13.428;2023-03-14T02:11:45;9.00;;;8.80;;
3943;SDS011;1986;52.546;13.428;2023-03-14T02:14:16;8.50;;;8.30;;
3943;SDS011;1986;52.546;13.428;2023-03-14T02:16:54;8.40;;;8.30;;
3943;SDS011;1986;52.546;13.428;2023-03-14T02:19:24;8.50;;;8.40;;
3943;SDS011;1986;52.546;13.428;2023-03-14T02:22:00;8.77;;;8.57;;
3943;SDS011;1986;52.546;13.428;2023-03-14T02:24:34;9.17;;;8.97;;
3943;SDS011;1986;52.546;13.428;2023-03-14T02:27:09;8.90;;;8.70;;
3943;SDS011;1986;52.546;13.428;2023-03-14T02:29:38;8.80;;;8.60;;
3943;SDS011;1986;52.546;13.428;2023-03-14T02:32:12;8.60;;;8.40;;
3943;SDS011;1986;52.546;13.428;2023-03-14T02:34:41;8.80;;;8.60;;
3943;SDS011;1986;52.546;13.428;2023-03-14T02:37:12;8.60;;;8.50;;
3943;SDS011;1986;52.546;13.428;2023-03-14T02:39:41;8.90;;;8.70;;
3943;SDS011;1986;52.546;13.428;2023-03-14T02:42:12;8.87;;;8.67;;
3943;SDS011;1986;52.546;13.428;2023-03-14T02:44:53;8.30;;;8.20;;
3943;SDS011;1986;52.546;13.428;2023-03-14T02:47:26;8.97;;;8.77;;
3943;SDS011;1986;52.546;13.428;2023-03-14T02:49:58;8.47;;;8.37;;
3943;SDS011;1986;52.546;13.428;2023-03-14T02:52:28;9.00;;;8.80;;
3943;SDS011;1986;52.546;13.428;2023-03-14T02:54:55;8.80;;;8.60;;
3943;SDS011;1986;52.546;13.428;2023-03-14T02:57:23;9.30;;;9.00;;
3943;SDS011;1986;52.546;13.428;2023-03-14T02:59:50;8.90;;;8.70;;
3943;SDS011;1986;52.546;13.428;2023-03-14T03:02:17;8.60;;;8.40;;
3943;SDS011;1986;52.546;13.428;2023-03-14T03:04:44;8.90;;;8.70;;
3943;SDS011;1986;52.546;13.428;2023-03-14T03:07:12;9.20;;;9.00;;
3943;SDS011;1986;52.546;13.428;2023-03-14T03:09:38;8.90;;;8.70;;
3943;SDS011;1986;52.546;13.428;2023-03-14T03:12:06;8.90;;;8.70;;
3943;SDS011;1986;52.546;13.428;2023-03-14T03:14:34;9.10;;;8.90;;
3943;SDS011;1986;52.546;13.428;2023-03-14T03:17:02;8.70;;;8.50;;
3943;SDS011;1986;52.546;13.428;2023-03-14T03:19:29;8.47;;;8.37;;
3943;SDS011;1986;52.546;13.428;2023-03-14T03:21:57;9.03;;;8.83;;
3943;SDS011;1986;52.546;13.428;2023-03-14T03:24:24;8.90;;;8.70;;
3943;SDS011;1986;52.546;13.428;2023-03-14T03:26:51;9.30;;;9.10;;
3943;SDS011;1986;52.546;13.428;2023-03-14T03:29:19;9.57;;;9.37;;
3943;SDS011;1986;52.546;13.428;2023-03-14T03:31:47;8.70;;;8.53;;
3943;SDS011;1986;52.546;13.428;2023-03-14T03:34:15;8.90;;;8.70;;
3943;SDS011;1986;52.546;13.428;2023-03-14T03:36:42;9.00;;;8.80;;
3943;SDS011;1986;52.546;13.428;2023-03-14T03:39:09;8.70;;;8.50;;
3943;SDS011;1986;52.546;13.428;2023-03-14T03:41:36;8.93;;;8.73;;
3943;SDS011;1986;52.546;13.428;2023-03-14T03:44:03;9.00;;;8.80;;
3943;SDS011;1986;52.546;13.428;2023-03-14T03:46:30;8.83;;;8.63;;
3943;SDS011;1986;52.546;13.428;2023-03-14T03:48:59;8.60;;;8.50;;
3943;SDS011;1986;52.546;13.428;2023-03-14T03:51:26;10.07;;;9.77;;
3943;SDS011;1986;52.546;13.428;2023-03-14T03:53:56;9.40;;;9.20;;
3943;SDS011;1986;52.546;13.428;2023-03-14T03:56:23;9.50;;;9.30;;
3943;SDS011;1986;52.546;13.428;2023-03-14T03:58:50;9.63;;;9.43;;
3943;SDS011;1986;52.546;13.428;2023-03-14T04:01:17;9.97;;;9.67;;
3943;SDS011;1986;52.546;13.428;2023-03-14T04:03:44;9.40;;;9.20;;
3943;SDS011;1986;52.546;13.428;2023-03-14T04:06:13;9.63;;;9.43;;
3943;SDS011;1986;52.546;13.428;2023-03-14T04:08:40;9.53;;;9.33;;
3943;SDS011;1986;52.546;13.428;2023-03-14T04:11:11;9.50;;;9.30;;
3943;SDS011;1986;52.546;13.428;2023-03-14T04:13:38;9.60;;;9.40;;
3943;SDS011;1986;52.546;13.428;2023-03-14T04:16:09;9.57;;;9.33;;
3943;SDS011;1986;52.546;13.428;2023-03-14T04:18:40;9.50;;;9.30;;
3943;SDS011;1986;52.546;13.428;2023-03-14T04:21:07;9.33;;;9.03;;
3943;SDS011;1986;52.546;13.428;2023-03-14T04:23:35;9.20;;;9.00;;
3943;SDS011;1986;52.546;13.428;2023-03-14T04:26:02;9.30;;;9.10;;
3943;SDS011;1986;52.546;13.428;2023-03-14T04:28:29;9.40;;;9.20;;
3943;SDS011;1986;52.546;13.428;2023-03-14T04:30:56;10.03;;;9.60;;
3943;SDS011;1986;52.546;13.428;2023-03-14T04:33:23;9.70;;;9.50;;
3943;SDS011;1986;52.546;13.428;2023-03-14T04:35:52;10.07;;;9.77;;
3943;SDS011;1986;52.546;13.428;2023-03-14T04:38:20;9.50;;;9.30;;
3943;SDS011;1986;52.546;13.428;2023-03-14T04:40:48;10.07;;;9.87;;
3943;SDS011;1986;52.546;13.428;2023-03-14T04:43:16;10.63;;;10.43;;
3943;SDS011;1986;52.546;13.428;2023-03-14T04:45:43;10.77;;;10.50;;
3943;SDS011;1986;52.546;13.428;2023-03-14T04:48:10;9.93;;;9.73;;
3943;SDS011;1986;52.546;13.428;2023-03-14T04:50:37;10.30;;;10.10;;
3943;SDS011;1986;52.546;13.428;2023-03-14T04:53:04;10.20;;;10.00;;
3943;SDS011;1986;52.546;13.428;2023-03-14T04:55:31;9.77;;;9.57;;
3943;SDS011;1986;52.546;13.428;2023-03-14T04:58:01;10.17;;;9.97;;
3943;SDS011;1986;52.546;13.428;2023-03-14T05:00:28;10.30;;;10.10;;
3943;SDS011;1986;52.546;13.428;2023-03-14T05:02:55;10.23;;;10.03;;
3943;SDS011;1986;52.546;13.428;2023-03-14T05:05:22;9.70;;;9.50;;
3943;SDS011;1986;52.546;13.428;2023-03-14T05:07:51;9.40;;;9.20;;
3943;SDS011;1986;52.546;13.428;2023-03-14T05:10:18;12.07;;;10.57;;
3943;SDS011;1986;52.546;13.428;2023-03-14T05:12:46;9.70;;;9.50;;
3943;SDS011;1986;52.546;13.428;2023-03-14T05:15:30;9.60;;;9.40;;
3943;SDS011;1986;52.546;13.428;2023-03-14T05:17:57;10.30;;;10.10;;
3943;SDS011;1986;52.546;13.428;2023-03-14T05:20:24;10.20;;;10.00;;
3943;SDS011;1986;52.546;13.428;2023-03-14T05:22:52;9.73;;;9.53;;
3943;SDS011;1986;52.546;13.428;2023-03-14T05:25:19;9.60;;;9.40;;
3943;SDS011;1986;52.546;13.428;2023-03-14T05:27:47;10.47;;;10.27;;
3943;SDS011;1986;52.546;13.428;2023-03-14T05:30:14;11.03;;;10.70;;
3943;SDS011;1986;52.546;13.428;2023-03-14T05:32:44;10.50;;;10.30;;
3943;SDS011;1986;52.546;13.428;2023-03-14T05:35:11;10.30;;;10.10;;
3943;SDS011;1986;52.546;13.428;2023-03-14T05:37:38;10.93;;;10.43;;
3943;SDS011;1986;52.546;13.428;2023-03-14T05:40:05;10.90;;;10.60;;
3943;SDS011;1986;52.546;13.428;2023-03-14T05:42:34;10.30;;;10.10;;
3943;SDS011;1986;52.546;13.428;2023-03-14T05:45:01;10.10;;;9.90;;
3943;SDS011;1986;52.546;13.428;2023-03-14T05:47:28;11.07;;;10.50;;
3943;SDS011;1986;52.546;13.428;2023-03-14T05:49:56;10.50;;;10.30;;
3943;SDS011;1986;52.546;13.428;2023-03-14T05:52:23;13.10;;;12.40;;
3943;SDS011;1986;52.546;13.428;2023-03-14T05:54:50;11.30;;;11.00;;
3943;SDS011;1986;52.546;13.428;2023-03-14T05:57:17;11.20;;;10.90;;
3943;SDS011;1986;52.546;13.428;2023-03-14T05:59:44;11.83;;;11.53;;
3943;SDS011;1986;52.546;13.428;2023-03-14T06:02:12;11.73;;;11.43;;
3943;SDS011;1986;52.546;13.428;2023-03-14T06:04:39;12.40;;;12.00;;
3943;SDS011;1986;52.546;13.428;2023-03-14T06:07:07;12.37;;;12.00;;
3943;SDS011;1986;52.546;13.428;2023-03-14T06:09:34;13.00;;;12.40;;
3943;SDS011;1986;52.546;13.428;2023-03-14T06:12:03;12.87;;;12.37;;
3943;SDS011;1986;52.546;13.428;2023-03-14T06:14:30;12.60;;;12.20;;
3943;SDS011;1986;52.546;13.428;2023-03-14T06:16:57;13.43;;;12.93;;
3943;SDS011;1986;52.546;13.428;2023-03-14T06:19:25;13.00;;;12.40;;
3943;SDS011;1986;52.546;13.428;2023-03-14T06:21:52;14.70;;;14.10;;
3943;SDS011;1986;52.546;13.428;2023-03-14T06:24:20;12.63;;;12.23;;
3943;SDS011;1986;52.546;13.428;2023-03-14T06:26:47;13.10;;;12.70;;
3943;SDS011;1986;52.546;13.428;2023-03-14T06:29:14;13.00;;;12.60;;
3943;SDS011;1986;52.546;13.428;2023-03-14T06:31:41;13.13;;;12.73;;
3943;SDS011;1986;52.546;13.428;2023-03-14T06:34:09;13.83;;;13.43;;
3943;SDS011;1986;52.546;13.428;2023-03-14T06:36:36;14.43;;;13.93;;
3943;SDS011;1986;52.546;13.428;2023-03-14T06:39:03;13.50;;;13.10;;
3943;SDS011;1986;52.546;13.428;2023-03-14T06:41:31;15.13;;;14.37;;
3943;SDS011;1986;52.546;13.428;2023-03-14T06:43:58;14.47;;;13.97;;
3943;SDS011;1986;52.546;13.428;2023-03-14T06:46:25;14.10;;;13.60;;
3943;SDS011;1986;52.546;13.428;2023-03-14T06:48:52;14.10;;;13.60;;
3943;SDS011;1986;52.546;13.428;2023-03-14T06:51:19;14.33;;;13.83;;
3943;SDS011;1986;52.546;13.428;2023-03-14T06:53:46;14.20;;;13.70;;
3943;SDS011;1986;52.546;13.428;2023-03-14T06:56:13;13.90;;;13.40;;
3943;SDS011;1986;52.546;13.428;2023-03-14T06:58:42;16.50;;;15.63;;
3943;SDS011;1986;52.546;13.428;2023-03-14T07:01:14;14.10;;;13.60;;
3943;SDS011;1986;52.546;13.428;2023-03-14T07:03:47;15.70;;;14.47;;
3943;SDS011;1986;52.546;13.428;2023-03-14T07:06:14;14.57;;;14.07;;
3943;SDS011;1986;52.546;13.428;2023-03-14T07:08:41;15.83;;;15.23;;
3943;SDS011;1986;52.546;13.428;2023-03-14T07:11:08;15.60;;;14.90;;
3943;SDS011;1986;52.546;13.428;2023-03-14T07:13:37;14.20;;;13.70;;
3943;SDS011;1986;52.546;13.428;2023-03-14T07:16:06;14.90;;;14.30;;
3943;SDS011;1986;52.546;13.428;2023-03-14T07:18:34;14.70;;;14.20;;
3943;SDS011;1986;52.546;13.428;2023-03-14T07:21:02;14.40;;;13.90;;
3943;SDS011;1986;52.546;13.428;2023-03-14T07:23:29;14.33;;;13.83;;
3943;SDS011;1986;52.546;13.428;2023-03-14T07:25:57;14.80;;;14.30;;
3943;SDS011;1986;52.546;13.428;2023-03-14T07:28:24;15.30;;;14.40;;
3943;SDS011;1986;52.546;13.428;2023-03-14T07:30:52;14.80;;;14.10;;
3943;SDS011;1986;52.546;13.428;2023-03-14T07:33:22;14.00;;;13.50;;
3943;SDS011;1986;52.546;13.428;2023-03-14T07:35:49;14.73;;;14.13;;
3943;SDS011;1986;52.546;13.428;2023-03-14T07:38:19;14.73;;;14.13;;
3943;SDS011;1986;52.546;13.428;2023-03-14T07:40:48;14.80;;;14.30;;
3943;SDS011;1986;52.546;13.428;2023-03-14T07:43:18;14.70;;;14.20;;
3943;SDS011;1986;52.546;13.428;2023-03-14T07:45:45;14.70;;;14.20;;
3943;SDS011;1986;52.546;13.428;2023-03-14T07:48:13;15.13;;;14.43;;
3943;SDS011;1986;52.546;13.428;2023-03-14T07:50:43;17.63;;;16.20;;
3943;SDS011;1986;52.546;13.428;2023-03-14T07:53:14;15.80;;;14.30;;
3943;SDS011;1986;52.546;13.428;2023-03-14T07:55:42;13.93;;;13.43;;
3943;SDS011;1986;52.546;13.428;2023-03-14T07:58:10;15.10;;;14.60;;
3943;SDS011;1986;52.546;13.428;2023-03-14T08:00:37;14.80;;;14.30;;
3943;SDS011;1986;52.546;13.428;2023-03-14T08:03:04;15.00;;;14.40;;
3943;SDS011;1986;52.546;13.428;2023-03-14T08:05:33;14.63;;;14.13;;
3943;SDS011;1986;52.546;13.428;2023-03-14T08:08:02;15.40;;;14.80;;
3943;SDS011;1986;52.546;13.428;2023-03-14T08:10:30;16.63;;;15.90;;
3943;SDS011;1986;52.546;13.428;2023-03-14T08:12:58;14.53;;;14.03;;
3943;SDS011;1986;52.546;13.428;2023-03-14T08:15:26;15.93;;;15.33;;
3943;SDS011;1986;52.546;13.428;2023-03-14T08:17:55;15.47;;;14.77;;
3943;SDS011;1986;52.546;13.428;2023-03-14T08:20:32;15.20;;;14.60;;
3943;SDS011;1986;52.546;13.428;2023-03-14T08:23:13;15.40;;;14.80;;
3943;SDS011;1986;52.546;13.428;2023-03-14T08:25:58;15.60;;;15.00;;
3943;SDS011;1986;52.546;13.428;2023-03-14T08:28:25;15.57;;;14.97;;
3943;SDS011;1986;52.546;13.428;2023-03-14T08:30:55;15.60;;;15.00;;
3943;SDS011;1986;52.546;13.428;2023-03-14T08:33:23;15.50;;;14.90;;
3943;SDS011;1986;52.546;13.428;2023-03-14T08:35:51;15.27;;;14.67;;
3943;SDS011;1986;52.546;13.428;2023-03-14T08:38:20;16.27;;;15.57;;
3943;SDS011;1986;52.546;13.428;2023-03-14T08:40:47;15.77;;;15.17;;
3943;SDS011;1986;52.546;13.428;2023-03-14T08:43:15;15.63;;;15.00;;
3943;SDS011;1986;52.546;13.428;2023-03-14T08:45:42;14.80;;;14.30;;
3943;SDS011;1986;52.546;13.428;2023-03-14T08:48:09;14.87;;;14.37;;
3943;SDS011;1986;52.546;13.428;2023-03-14T08:50:36;14.80;;;14.30;;
3943;SDS011;1986;52.546;13.428;2023-03-14T08:53:03;14.73;;;14.23;;
3943;SDS011;1986;52.546;13.428;2023-03-14T08:55:32;15.60;;;15.00;;
3943;SDS011;1986;52.546;13.428;2023-03-14T08:57:59;15.60;;;15.00;;
3943;SDS011;1986;52.546;13.428;2023-03-14T09:00:26;15.73;;;15.13;;
3943;SDS011;1986;52.546;13.428;2023-03-14T09:02:53;15.17;;;14.60;;
3943;SDS011;1986;52.546;13.428;2023-03-14T09:05:20;15.60;;;14.90;;
3943;SDS011;1986;52.546;13.428;2023-03-14T09:07:49;17.37;;;16.23;;
3943;SDS011;1986;52.546;13.428;2023-03-14T09:10:16;14.87;;;14.37;;
3943;SDS011;1986;52.546;13.428;2023-03-14T09:12:45;15.33;;;14.73;;
3943;SDS011;1986;52.546;13.428;2023-03-14T09:15:12;16.07;;;15.37;;
3943;SDS011;1986;52.546;13.428;2023-03-14T09:17:39;15.30;;;14.70;;
3943;SDS011;1986;52.546;13.428;2023-03-14T09:20:09;16.13;;;15.53;;
3943;SDS011;1986;52.546;13.428;2023-03-14T09:22:37;16.30;;;15.70;;
3943;SDS011;1986;52.546;13.428;2023-03-14T09:25:04;17.83;;;16.97;;
3943;SDS011;1986;52.546;13.428;2023-03-14T09:27:31;16.37;;;15.40;;
3943;SDS011;1986;52.546;13.428;2023-03-14T09:30:00;16.40;;;15.80;;
3943;SDS011;1986;52.546;13.428;2023-03-14T09:32:27;30.43;;;15.93;;
3943;SDS011;1986;52.546;13.428;2023-03-14T09:34:54;16.47;;;15.77;;
3943;SDS011;1986;52.546;13.428;2023-03-14T09:37:21;16.67;;;15.97;;
3943;SDS011;1986;52.546;13.428;2023-03-14T09:39:49;16.00;;;15.40;;
3943;SDS011;1986;52.546;13.428;2023-03-14T09:42:19;17.00;;;16.30;;
3943;SDS011;1986;52.546;13.428;2023-03-14T09:44:53;16.10;;;15.40;;
3943;SDS011;1986;52.546;13.428;2023-03-14T09:47:24;17.17;;;16.47;;
3943;SDS011;1986;52.546;13.428;2023-03-14T09:49:52;17.43;;;16.73;;
3943;SDS011;1986;52.546;13.428;2023-03-14T09:52:20;17.63;;;16.83;;
3943;SDS011;1986;52.546;13.428;2023-03-14T09:54:50;17.80;;;17.00;;
3943;SDS011;1986;52.546;13.428;2023-03-14T09:57:21;17.03;;;16.33;;
3943;SDS011;1986;52.546;13.428;2023-03-14T09:59:54;16.73;;;16.03;;
3943;SDS011;1986;52.546;13.428;2023-03-14T10:02:28;16.00;;;15.40;;
3943;SDS011;1986;52.546;13.428;2023-03-14T10:05:05;15.90;;;15.30;;
3943;SDS011;1986;52.546;13.428;2023-03-14T10:07:40;18.07;;;16.63;;
3943;SDS011;1986;52.546;13.428;2023-03-14T10:10:10;16.90;;;16.20;;
3943;SDS011;1986;52.546;13.428;2023-03-14T10:12:40;17.13;;;16.43;;
3943;SDS011;1986;52.546;13.428;2023-03-14T10:15:12;16.60;;;15.90;;
3943;SDS011;1986;52.546;13.428;2023-03-14T10:17:48;17.27;;;16.57;;
3943;SDS011;1986;52.546;13.428;2023-03-14T10:20:30;17.60;;;16.80;;
3943;SDS011;1986;52.546;13.428;2023-03-14T10:22:59;17.13;;;16.43;;
3943;SDS011;1986;52.546;13.428;2023-03-14T10:25:29;16.90;;;16.20;;
3943;SDS011;1986;52.546;13.428;2023-03-14T10:27:58;16.40;;;15.80;;
3943;SDS011;1986;52.546;13.428;2023-03-14T10:30:30;17.27;;;16.37;;
3943;SDS011;1986;52.546;13.428;2023-03-14T10:33:12;17.30;;;16.60;;
3943;SDS011;1986;52.546;13.428;2023-03-14T10:35:52;17.43;;;16.73;;
3943;SDS011;1986;52.546;13.428;2023-03-14T10:38:22;17.10;;;16.40;;
3943;SDS011;1986;52.546;13.428;2023-03-14T10:40:53;16.37;;;15.67;;
3943;SDS011;1986;52.546;13.428;2023-03-14T10:43:23;19.27;;;18.23;;
3943;SDS011;1986;52.546;13.428;2023-03-14T10:45:54;17.00;;;16.30;;
3943;SDS011;1986;52.546;13.428;2023-03-14T10:48:29;16.90;;;16.20;;
3943;SDS011;1986;52.546;13.428;2023-03-14T10:51:02;16.40;;;15.70;;
3943;SDS011;1986;52.546;13.428;2023-03-14T10:53:33;17.00;;;16.30;;
3943;SDS011;1986;52.546;13.428;2023-03-14T10:56:06;16.87;;;16.13;;
3943;SDS011;1986;52.546;13.428;2023-03-14T10:58:35;16.17;;;15.50;;
3943;SDS011;1986;52.546;13.428;2023-03-14T11:01:15;16.37;;;15.67;;
3943;SDS011;1986;52.546;13.428;2023-03-14T11:03:56;17.53;;;16.73;;
3943;SDS011;1986;52.546;13.428;2023-03-14T11:06:29;18.53;;;17.53;;
3943;SDS011;1986;52.546;13.428;2023-03-14T11:09:11;17.80;;;16.97;;
3943;SDS011;1986;52.546;13.428;2023-03-14T11:11:48;18.97;;;17.60;;
3943;SDS011;1986;52.546;13.428;2023-03-14T11:14:20;17.10;;;16.40;;
3943;SDS011;1986;52.546;13.428;2023-03-14T11:16:56;17.70;;;16.90;;
3943;SDS011;1986;52.546;13.428;2023-03-14T11:22:23;17.40;;;16.70;;
3943;SDS011;1986;52.546;13.428;2023-03-14T11:25:01;18.20;;;17.50;;
3943;SDS011;1986;52.546;13.428;2023-03-14T11:27:46;18.80;;;17.90;;
3943;SDS011;1986;52.546;13.428;2023-03-14T11:30:23;17.37;;;16.57;;
3943;SDS011;1986;52.546;13.428;2023-03-14T11:32:57;17.63;;;16.93;;
3943;SDS011;1986;52.546;13.428;2023-03-14T11:35:33;18.00;;;17.20;;
3943;SDS011;1986;52.546;13.428;2023-03-14T11:38:07;17.67;;;16.97;;
3943;SDS011;1986;52.546;13.428;2023-03-14T11:40:39;17.47;;;16.77;;
3943;SDS011;1986;52.546;13.428;2023-03-14T11:43:10;17.63;;;16.93;;
3943;SDS011;1986;52.546;13.428;2023-03-14T11:45:45;16.80;;;16.10;;
3943;SDS011;1986;52.546;13.428;2023-03-14T11:48:24;17.10;;;16.40;;
3943;SDS011;1986;52.546;13.428;2023-03-14T11:51:15;18.20;;;17.20;;
3943;SDS011;1986;52.546;13.428;2023-03-14T11:53:55;17.53;;;16.70;;
3943;SDS011;1986;52.546;13.428;2023-03-14T11:56:31;18.47;;;17.33;;
3943;SDS011;1986;52.546;13.428;2023-03-14T11:59:01;17.20;;;16.50;;
3943;SDS011;1986;52.546;13.428;2023-03-14T12:01:48;17.90;;;16.70;;
3943;SDS011;1986;52.546;13.428;2023-03-14T12:04:42;18.70;;;17.07;;
3943;SDS011;1986;52.546;13.428;2023-03-14T12:07:29;17.40;;;16.70;;
3943;SDS011;1986;52.546;13.428;2023-03-14T12:10:02;17.10;;;16.40;;
3943;SDS011;1986;52.546;13.428;2023-03-14T12:12:29;17.20;;;16.50;;
3943;SDS011;1986;52.546;13.428;2023-03-14T12:14:58;16.93;;;16.23;;
3943;SDS011;1986;52.546;13.428;2023-03-14T12:17:27;17.40;;;16.70;;
3943;SDS011;1986;52.546;13.428;2023-03-14T12:20:15;16.13;;;15.53;;
3943;SDS011;1986;52.546;13.428;2023-03-14T12:22:46;17.00;;;16.30;;
3943;SDS011;1986;52.546;13.428;2023-03-14T12:25:17;18.43;;;17.00;;
3943;SDS011;1986;52.546;13.428;2023-03-14T12:27:47;17.07;;;16.37;;
3943;SDS011;1986;52.546;13.428;2023-03-14T12:30:30;17.70;;;16.90;;
3943;SDS011;1986;52.546;13.428;2023-03-14T12:33:11;17.10;;;16.40;;
3943;SDS011;1986;52.546;13.428;2023-03-14T12:36:17;17.20;;;16.50;;
3943;SDS011;1986;52.546;13.428;2023-03-14T12:39:22;17.47;;;16.77;;
3943;SDS011;1986;52.546;13.428;2023-03-14T12:42:03;17.50;;;16.80;;
3943;SDS011;1986;52.546;13.428;2023-03-14T12:44:38;17.20;;;16.50;;
3943;SDS011;1986;52.546;13.428;2023-03-14T12:51:29;17.83;;;16.93;;
3943;SDS011;1986;52.546;13.428;2023-03-14T12:53:51;17.57;;;16.77;;
3943;SDS011;1986;52.546;13.428;2023-03-14T13:00:17;16.93;;;16.10;;
3943;SDS011;1986;52.546;13.428;2023-03-14T13:02:47;17.03;;;16.33;;
3943;SDS011;1986;52.546;13.428;2023-03-14T13:05:17;17.20;;;16.50;;
3943;SDS011;1986;52.546;13.428;2023-03-14T13:08:02;17.70;;;16.90;;
3943;SDS011;1986;52.546;13.428;2023-03-14T13:10:39;17.90;;;17.20;;
3943;SDS011;1986;52.546;13.428;2023-03-14T13:13:14;19.93;;;19.13;;
3943;SDS011;1986;52.546;13.428;2023-03-14T13:15:45;15.40;;;14.90;;
3943;SDS011;1986;52.546;13.428;2023-03-14T13:18:23;14.57;;;14.07;;
3943;SDS011;1986;52.546;13.428;2023-03-14T13:20:59;14.70;;;14.20;;
3943;SDS011;1986;52.546;13.428;2023-03-14T13:23:38;14.20;;;13.70;;
3943;SDS011;1986;52.546;13.428;2023-03-14T13:26:10;14.23;;;13.73;;
3943;SDS011;1986;52.546;13.428;2023-03-14T13:32:12;12.90;;;12.50;;
3943;SDS011;1986;52.546;13.428;2023-03-14T13:35:20;12.97;;;12.57;;
3943;SDS011;1986;52.546;13.428;2023-03-14T13:37:54;12.70;;;12.30;;
3943;SDS011;1986;52.546;13.428;2023-03-14T13:40:34;12.70;;;12.30;;
3943;SDS011;1986;52.546;13.428;2023-03-14T13:43:03;11.70;;;11.40;;
3943;SDS011;1986;52.546;13.428;2023-03-14T13:45:41;12.70;;;12.20;;
3943;SDS011;1986;52.546;13.428;2023-03-14T13:48:31;12.20;;;11.90;;
3943;SDS011;1986;52.546;13.428;2023-03-14T13:51:07;12.80;;;12.40;;
3943;SDS011;1986;52.546;13.428;2023-03-14T13:53:43;13.67;;;13.27;;
3943;SDS011;1986;52.546;13.428;2023-03-14T13:56:11;14.50;;;14.00;;
3943;SDS011;1986;52.546;13.428;2023-03-14T13:58:39;14.67;;;14.03;;
3943;SDS011;1986;52.546;13.428;2023-03-14T14:01:15;14.30;;;13.80;;
3943;SDS011;1986;52.546;13.428;2023-03-14T14:03:48;14.13;;;13.63;;
3943;SDS011;1986;52.546;13.428;2023-03-14T14:06:19;14.90;;;14.40;;
3943;SDS011;1986;52.546;13.428;2023-03-14T14:08:57;14.60;;;14.10;;
3943;SDS011;1986;52.546;13.428;2023-03-14T14:11:32;15.00;;;14.50;;
3943;SDS011;1986;52.546;13.428;2023-03-14T14:14:23;15.70;;;15.10;;
3943;SDS011;1986;52.546;13.428;2023-03-14T14:16:57;17.77;;;16.77;;
3943;SDS011;1986;52.546;13.428;2023-03-14T14:19:32;16.57;;;15.97;;
3943;SDS011;1986;52.546;13.428;2023-03-14T14:22:00;16.47;;;15.67;;
3943;SDS011;1986;52.546;13.428;2023-03-14T14:24:32;16.47;;;15.80;;
3943;SDS011;1986;52.546;13.428;2023-03-14T14:27:08;16.40;;;15.80;;
3943;SDS011;1986;52.546;13.428;2023-03-14T14:29:39;16.60;;;16.00;;
3943;SDS011;1986;52.546;13.428;2023-03-14T14:32:12;16.30;;;15.70;;
3943;SDS011;1986;52.546;13.428;2023-03-14T14:35:07;16.00;;;15.40;;
3943;SDS011;1986;52.546;13.428;2023-03-14T14:37:50;16.00;;;15.40;;
3943;SDS011;1986;52.546;13.428;2023-03-14T14:40:22;16.40;;;15.80;;
3943;SDS011;1986;52.546;13.428;2023-03-14T14:43:01;16.30;;;15.70;;
3943;SDS011;1986;52.546;13.428;2023-03-14T14:45:33;15.77;;;15.17;;
3943;SDS011;1986;52.546;13.428;2023-03-14T14:48:04;17.30;;;16.37;;
3943;SDS011;1986;52.546;13.428;2023-03-14T14:50:55;15.20;;;14.70;;
3943;SDS011;1986;52.546;13.428;2023-03-14T14:53:29;16.83;;;16.03;;
3943;SDS011;1986;52.546;13.428;2023-03-14T14:56:15;16.40;;;15.80;;
3943;SDS011;1986;52.546;13.428;2023-03-14T15:02:09;17.03;;;16.33;;
3943;SDS011;1986;52.546;13.428;2023-03-14T15:05:12;16.70;;;16.00;;
3943;SDS011;1986;52.546;13.428;2023-03-14T15:07:45;16.40;;;15.80;;
3943;SDS011;1986;52.546;13.428;2023-03-14T15:10:14;17.63;;;16.73;;
3943;SDS011;1986;52.546;13.428;2023-03-14T15:13:00;17.20;;;16.40;;
3943;SDS011;1986;52.546;13.428;2023-03-14T15:15:27;16.97;;;16.27;;
3943;SDS011;1986;52.546;13.428;2023-03-14T15:17:59;17.43;;;16.73;;
3943;SDS011;1986;52.546;13.428;2023-03-14T15:20:34;17.43;;;16.63;;